Terminal Aerodrome Forecast
Issued by NWS Cleveland, OH

Home | Current Version | Previous Version | Graphics & Text | Print | Product List | Glossary Off
Versions: 1 2 3 4 5 6 7 8 9 10 11 12 13 14

302
FTUS41 KCLE 271224 AAA
TAFTOL
TAF AMD
KTOL 271224Z 2712/2812 00000KT P6SM SCT025 BKN100
      TEMPO 2712/2714 BKN025
     FM271800 09005KT P6SM VCTS BKN025CB BKN050
     FM272000 08005KT P6SM BKN035 BKN080
     FM280800 02008KT P6SM SCT035 BKN080
     FM281100 02008KT P6SM BKN015=

USA.gov is the U.S. government's official web portal to all federal, state and local government web resources and services.